Date,TemperatureHighF,TemperatureAvgF,TemperatureLowF,DewpointHighF,DewpointAvgF,DewpointLowF,HumidityHigh,HumidityAvg,HumidityLow,PressureMaxIn,PressureMinIn,WindSpeedMaxMPH,WindSpeedAvgMPH,GustSpeedMaxMPH,PrecipitationSumIn
2013-1-1,48.0,45.8,42.0,47.0,40.5,29.0,97,84,50,30.09,29.91,3,0,11,0.55
2013-1-2,52.0,47.7,43.0,46.0,43.8,41.0,98,87,70,30.10,29.87,2,0,6,0.35
2013-1-3,46.0,41.6,31.0,43.0,39.0,27.0,95,90,82,30.25,30.05,2,0,7,0.01
2013-1-4,51.0,36.2,26.0,30.0,26.6,22.0,96,71,39,30.32,30.21,5,1,11,0.00
2013-1-5,46.0,36.7,25.0,35.0,26.2,22.0,93,68,42,30.36,30.20,4,1,10,0.01
2013-1-6,56.0,43.3,35.0,43.0,37.1,31.0,89,79,56,30.21,30.00,4,1,13,0.02
2013-1-7,53.0,38.5,28.0,32.0,29.3,26.0,95,73,39,30.38,30.17,3,0,9,0.00
2013-1-8,51.0,39.5,28.0,41.0,33.7,26.0,96,81,60,30.42,30.33,1,0,5,0.00
2013-1-9,61.0,51.9,45.0,54.0,47.7,40.0,94,86,78,30.41,30.33,2,0,6,0.00
2013-1-10,66.0,54.5,45.0,54.0,49.7,44.0,98,85,64,30.44,30.30,3,0,9,0.05
2013-1-11,56.0,50.3,49.0,53.0,49.1,48.0,98,96,90,30.30,30.11,1,0,5,0.76
2013-1-12,72.0,59.5,50.0,65.0,56.7,49.0,99,91,65,30.13,30.03,5,1,14,0.16
2013-1-13,67.0,58.9,53.0,63.0,57.1,52.0,99,94,85,30.09,29.99,5,1,14,0.00
2013-1-14,65.0,61.5,57.0,64.0,60.7,56.0,99,98,96,30.06,29.99,4,1,12,0.71
2013-1-15,62.0,51.4,45.0,61.0,50.4,44.0,98,97,94,30.08,29.99,2,0,7,0.83
2013-1-16,51.0,47.1,44.0,50.0,46.1,43.0,98,98,97,30.00,29.93,1,0,4,0.53
2013-1-17,52.0,47.5,37.0,52.0,46.8,35.0,99,97,93,30.14,29.70,4,1,12,1.81
2013-1-18,53.0,40.2,32.0,36.0,29.0,22.0,92,68,31,30.47,30.14,4,1,10,0.31
2013-1-19,53.0,37.9,26.0,35.0,29.0,25.0,97,74,37,30.46,30.16,6,1,12,0.01
2013-1-20,64.0,44.8,31.0,39.0,33.4,28.0,93,68,32,30.17,29.98,4,1,11,0.01
2013-1-21,61.0,44.0,30.0,37.0,27.0,16.0,97,59,25,30.04,29.92,7,2,23,0.00
2013-1-22,44.0,33.6,26.0,24.0,17.3,11.0,78,54,28,30.22,29.98,7,0,12,0.00
2013-1-23,51.0,35.1,22.0,30.0,21.8,14.0,81,60,38,30.32,30.06,7,1,14,0.00
2013-1-24,48.0,39.1,28.0,34.0,21.8,7.0,91,55,25,30.45,29.97,4,1,13,0.00
2013-1-25,29.0,26.4,23.0,26.0,18.1,8.0,93,73,42,30.47,30.10,3,0,10,0.00
2013-1-26,52.0,35.7,26.0,38.0,30.1,25.0,98,83,44,30.31,30.08,3,0,6,0.08
2013-1-27,44.0,35.8,28.0,35.0,30.1,26.0,94,81,63,30.52,30.31,2,0,10,0.01
2013-1-28,53.0,44.5,39.0,46.0,38.0,32.0,88,78,69,30.44,30.23,5,1,12,0.01
2013-1-29,68.0,54.6,39.0,59.0,50.8,37.0,98,88,73,30.23,29.96,6,1,15,0.01
2013-1-30,67.0,61.8,46.0,63.0,58.5,44.0,96,89,82,29.97,29.41,11,4,26,1.59
2013-1-31,49.0,43.0,35.0,44.0,24.8,19.0,92,51,32,30.02,29.51,9,4,22,1.43
2013-2-1,42.0,36.0,26.0,29.0,18.1,6.0,76,51,26,30.32,29.93,9,2,25,0.00
2013-2-2,44.0,31.5,21.0,36.0,22.1,12.0,95,72,29,30.35,30.04,7,2,20,0.05
2013-2-3,52.0,40.1,30.0,38.0,29.2,21.0,94,69,31,30.04,29.86,9,3,23,0.05
2013-2-4,50.0,37.4,27.0,31.0,25.8,23.0,86,65,36,30.11,29.99,5,1,10,0.00
2013-2-5,62.0,45.6,32.0,44.0,35.2,28.0,90,70,37,29.99,29.86,8,2,20,0.00
2013-2-6,65.0,46.9,33.0,43.0,33.7,27.0,97,67,25,30.15,29.96,5,0,8,0.00
2013-2-7,48.0,43.7,41.0,42.0,35.6,27.0,95,75,48,30.18,29.95,3,0,10,0.56
2013-2-8,58.0,46.4,37.0,49.0,39.5,26.0,97,79,34,30.10,29.86,7,1,18,0.36
2013-2-9,61.0,44.1,32.0,34.0,26.5,18.0,84,55,23,30.28,30.09,5,1,12,0.00
2013-2-10,56.0,44.9,36.0,46.0,35.0,27.0,96,71,39,30.37,30.14,2,0,7,0.43
2013-2-11,56.0,50.5,46.0,55.0,49.2,45.0,98,96,93,30.14,29.93,5,1,14,0.66
2013-2-12,58.0,47.9,38.0,46.0,38.8,27.0,96,76,31,30.06,29.84,2,0,7,0.17
2013-2-13,53.0,43.9,35.0,46.0,41.5,32.0,96,91,64,29.89,29.63,7,1,17,0.18
2013-2-14,53.0,39.3,29.0,38.0,32.8,28.0,97,80,49,30.03,29.84,6,1,16,0.01
2013-2-15,61.0,44.8,28.0,41.0,32.9,27.0,97,68,35,30.07,29.90,10,1,17,0.01
2013-2-16,42.0,36.3,28.0,33.0,25.8,12.0,90,66,40,30.01,29.81,5,1,13,0.03
2013-2-17,47.0,31.3,19.0,20.0,13.5,6.0,82,53,19,30.24,30.01,7,1,14,0.01
2013-2-18,55.0,37.5,23.0,31.0,23.0,19.0,88,61,30,30.35,30.19,6,1,15,0.00
2013-2-19,53.0,41.6,32.0,45.0,33.0,18.0,95,74,32,30.18,29.86,6,1,16,0.27
2013-2-20,55.0,38.8,25.0,33.0,22.1,15.0,89,57,23,30.10,30.01,4,0,10,0.01
2013-2-21,58.0,41.5,27.0,40.0,24.0,15.0,92,56,20,30.19,30.04,4,0,7,0.12
2013-2-22,41.0,39.0,37.0,39.0,37.4,35.0,96,94,92,30.22,30.08,1,0,7,0.54
2013-2-23,44.0,40.6,37.0,43.0,39.5,36.0,97,96,93,30.10,29.82,1,0,5,0.44
2013-2-24,65.0,48.8,38.0,45.0,39.8,34.0,98,76,36,29.96,29.83,4,0,11,0.01
2013-2-25,49.0,41.6,36.0,34.0,29.2,26.0,86,63,46,30.11,29.95,3,1,12,0.01
2013-2-26,41.0,36.9,33.0,40.0,35.4,31.0,97,95,82,30.01,29.58,4,1,14,1.24
2013-2-27,57.0,45.3,32.0,40.0,36.4,30.0,97,73,51,29.78,29.64,7,2,18,0.02
2013-2-28,50.0,41.9,31.0,36.0,28.5,25.0,88,61,41,29.88,29.70,8,2,19,0.00
2013-3-1,49.0,37.8,27.0,32.0,28.1,25.0,94,70,47,29.92,29.83,4,1,11,0.00
2013-3-2,45.0,39.1,33.0,33.0,29.4,21.0,90,69,49,29.91,29.81,4,1,11,0.00
2013-3-3,45.0,33.8,25.0,23.0,19.4,17.0,81,57,36,30.00,29.88,5,1,11,0.00
2013-3-4,55.0,37.1,22.0,32.0,21.0,16.0,86,57,24,30.14,30.00,5,1,12,0.00
2013-3-5,48.0,42.8,36.0,45.0,38.1,30.0,96,84,63,30.04,29.62,7,1,23,0.54
2013-3-6,47.0,23.5,32.0,32.0,-24.1,-99.9,64,34,44,30.09,29.66,7,2,26,0.50
2013-3-7,-200.0,0.0,200.0,-99.9,-99.9,-99.9,0,0,100,30.21,30.06,5,1,11,0.02
2013-3-8,-200.0,0.0,200.0,-99.9,-99.9,-99.9,0,0,100,30.24,30.11,5,1,11,0.00
2013-3-9,-200.0,0.0,200.0,-99.9,-99.9,-99.9,0,0,100,30.28,30.16,4,0,9,0.00
2013-3-10,-200.0,0.0,200.0,-99.9,-99.9,-99.9,0,0,100,30.22,30.09,4,1,10,0.00
2013-3-11,-200.0,0.0,200.0,-99.9,-99.9,-99.9,0,0,100,30.11,29.77,8,1,20,0.99
2013-3-12,-200.0,0.0,200.0,-99.9,-99.9,-99.9,0,0,100,29.95,29.68,4,1,11,1.50
2013-3-13,-200.0,0.0,200.0,-99.9,-99.9,-99.9,0,0,100,30.10,29.94,8,2,24,0.01
2013-3-14,-200.0,0.0,200.0,-99.9,-99.9,-99.9,0,0,100,30.24,30.09,5,1,13,0.00
2013-3-15,-200.0,0.0,200.0,-99.9,-99.9,-99.9,0,0,100,30.12,29.84,8,2,19,0.00
2013-3-16,-200.0,0.0,200.0,-99.9,-99.9,-99.9,0,0,100,29.87,29.70,9,3,25,0.00
2013-3-17,-200.0,0.0,200.0,-99.9,-99.9,-99.9,0,0,100,29.98,29.81,7,2,16,0.00
2013-3-18,-200.0,0.0,200.0,-99.9,-99.9,-99.9,0,0,100,30.03,29.81,3,1,9,0.49
2013-3-19,-200.0,0.0,200.0,-99.9,-99.9,-99.9,0,0,100,30.00,29.78,8,1,25,0.46
2013-3-20,64.0,19.7,39.0,26.0,-54.3,-99.9,58,12,14,30.04,29.75,8,2,17,0.01
2013-3-21,49.0,37.4,26.0,30.0,19.9,12.0,86,53,26,29.93,29.77,5,1,12,0.01
2013-3-22,50.0,37.1,26.0,29.0,21.0,17.0,81,55,30,30.06,29.93,7,1,14,0.00
2013-3-23,52.0,44.4,40.0,46.0,38.9,28.0,95,81,56,30.01,29.85,3,0,9,0.03
2013-3-24,46.0,43.3,41.0,44.0,41.5,39.0,96,93,86,29.89,29.52,3,1,13,0.99
2013-3-25,45.0,40.1,35.0,40.0,26.7,19.0,96,62,39,29.90,29.52,12,3,26,0.03
2013-3-26,49.0,36.7,26.0,27.0,23.5,21.0,90,61,36,30.18,29.90,4,1,17,0.00
2013-3-27,56.0,39.4,26.0,30.0,24.7,21.0,91,61,27,30.25,30.13,5,1,11,0.00
2013-3-28,61.0,42.1,27.0,30.0,24.8,16.0,92,57,18,30.29,30.14,6,1,11,0.00
2013-3-29,61.0,44.5,28.0,43.0,29.9,24.0,91,61,26,30.32,30.18,6,1,17,0.01
2013-3-30,67.0,53.3,43.0,46.0,42.4,38.0,96,71,35,30.19,29.99,5,1,11,0.03
2013-3-31,69.0,56.6,50.0,58.0,51.1,-99.9,98,86,60,30.01,29.79,8,2,23,0.57
2013-4-1,73.0,59.9,46.0,54.0,43.0,34.0,97,60,28,29.92,29.79,8,2,21,0.03
2013-4-2,71.0,53.7,38.0,40.0,32.1,24.0,87,50,19,30.09,29.92,6,1,16,0.01
2013-4-3,60.0,53.1,46.0,39.0,26.7,19.0,64,37,25,30.20,30.05,4,1,12,0.00
2013-4-4,50.0,42.8,38.0,38.0,33.5,26.0,94,73,41,30.20,29.95,4,0,12,0.68
2013-4-5,66.0,48.6,34.0,45.0,37.9,28.0,98,72,24,30.02,29.88,5,1,10,0.07
2013-4-6,70.0,54.0,38.0,44.0,37.2,33.0,94,60,25,30.17,30.02,5,1,15,0.00
2013-4-7,71.0,57.9,42.0,50.0,44.5,39.0,94,64,38,30.18,30.05,6,2,17,0.00
2013-4-8,76.0,62.4,49.0,57.0,51.8,46.0,96,71,44,30.11,30.00,6,1,22,0.00
2013-4-9,82.0,67.0,52.0,59.0,54.6,50.0,95,68,40,30.14,30.03,7,2,18,0.00
2013-4-10,84.0,69.1,56.0,61.0,56.8,53.0,94,69,39,30.05,29.88,7,2,16,0.00
2013-4-11,80.0,68.6,59.0,66.0,59.9,55.0,90,75,50,29.90,29.64,6,2,16,0.08
2013-4-12,78.0,67.8,54.0,66.0,52.9,37.0,97,66,26,29.76,29.58,12,3,28,1.04
2013-4-13,78.0,59.9,43.0,49.0,42.0,37.0,94,58,24,29.96,29.76,6,1,11,0.10
2013-4-14,71.0,59.1,46.0,54.0,46.2,39.0,91,66,34,30.03,29.92,5,1,16,0.02
2013-4-15,69.0,60.8,54.0,59.0,56.4,53.0,97,86,67,30.14,29.91,3,0,9,0.30
2013-4-16,79.0,66.6,58.0,63.0,58.9,56.0,94,78,48,30.23,30.11,3,0,9,0.02
2013-4-17,81.0,65.7,59.0,65.0,61.1,57.0,97,86,55,30.18,30.06,3,0,9,0.30
2013-4-18,80.0,66.9,58.0,65.0,60.7,57.0,99,83,51,30.09,29.90,6,0,13,0.07
2013-4-19,69.0,62.7,51.0,65.0,60.3,49.0,96,92,81,29.90,29.70,7,2,19,1.25
2013-4-20,65.0,51.2,37.0,49.0,37.9,28.0,94,65,31,30.22,29.87,4,1,12,0.05
2013-4-21,65.0,52.9,39.0,46.0,38.0,31.0,94,62,33,30.37,30.22,5,1,13,0.00
2013-4-22,65.0,53.0,43.0,45.0,40.4,37.0,88,65,38,30.36,30.16,4,1,14,0.00
2013-4-23,73.0,55.8,39.0,53.0,43.2,36.0,94,66,36,30.23,30.05,4,1,10,0.00
2013-4-24,74.0,60.6,48.0,60.0,53.7,46.0,97,80,55,30.09,29.96,8,2,19,0.00
2013-4-25,75.0,60.7,47.0,58.0,43.1,32.0,96,57,22,30.22,30.01,4,1,11,0.00
2013-4-26,73.0,57.9,43.0,48.0,39.2,34.0,87,55,27,30.37,30.22,4,1,14,0.00
2013-4-27,59.0,55.4,53.0,56.0,51.9,47.0,96,89,69,30.29,30.19,2,0,7,0.47
2013-4-28,53.0,52.5,50.0,52.0,50.4,-99.9,98,97,96,30.21,30.00,1,0,6,1.75
2013-4-29,74.0,60.8,53.0,61.0,56.2,52.0,99,87,55,30.02,29.88,4,1,12,0.50
2013-4-30,75.0,62.6,51.0,62.0,57.1,49.0,98,84,58,30.11,29.92,5,0,12,0.01
2013-5-1,68.0,61.3,54.0,59.0,55.5,53.0,96,82,66,30.20,30.11,3,0,10,0.00
2013-5-2,62.0,58.6,56.0,58.0,55.5,54.0,95,90,83,30.22,30.16,3,0,10,0.02
2013-5-3,64.0,57.6,54.0,57.0,54.6,53.0,96,90,75,30.16,30.02,3,1,11,0.11
2013-5-4,57.0,52.9,50.0,54.0,48.6,44.0,96,85,71,30.02,29.90,4,1,15,0.73
2013-5-5,53.0,50.6,48.0,52.0,49.6,47.0,98,96,96,29.93,29.78,3,1,16,2.70
2013-5-6,64.0,56.6,48.0,55.0,50.6,46.0,99,82,56,29.87,29.76,5,1,15,0.50
2013-5-7,71.0,55.4,42.0,56.0,48.0,41.0,98,80,44,29.91,29.81,4,1,9,0.11
2013-5-8,75.0,61.4,49.0,60.0,54.3,48.0,98,80,52,29.98,29.87,5,1,19,0.11
2013-5-9,80.0,62.7,51.0,66.0,56.6,50.0,98,83,42,30.03,29.95,3,0,8,0.05
2013-5-10,80.0,65.8,55.0,65.0,57.4,-99.9,99,80,53,30.03,29.89,6,1,17,0.03
2013-5-11,77.0,67.3,58.0,65.0,61.0,57.0,97,82,61,29.91,29.76,5,1,15,0.07
2013-5-12,74.0,60.9,49.0,59.0,46.9,-99.9,98,67,28,30.00,29.81,5,1,15,0.07
2013-5-13,72.0,55.8,41.0,43.0,36.9,30.0,92,54,23,30.14,30.00,4,1,11,0.00
2013-5-14,76.0,59.3,42.0,54.0,43.5,36.0,93,60,33,30.21,30.03,5,1,14,0.00
2013-5-15,89.0,71.5,55.0,64.0,57.8,52.0,95,65,40,30.04,29.88,7,1,17,0.00
2013-5-16,83.0,65.0,59.0,64.0,38.3,-99.9,89,70,46,29.97,29.90,4,1,15,0.00
2013-5-17,85.0,71.0,59.0,67.0,56.7,-99.9,97,73,40,30.03,29.94,5,1,13,0.00
2013-5-18,75.0,67.3,63.0,69.0,64.4,60.0,98,91,79,30.06,29.98,4,0,7,1.03
2013-5-19,74.0,68.6,64.0,68.0,65.8,63.0,98,91,78,30.05,29.95,3,0,8,0.43
2013-5-20,83.0,70.4,62.0,72.0,65.7,61.0,98,86,60,30.05,29.95,3,0,8,0.03
2013-5-21,89.0,73.8,64.0,73.0,66.6,63.0,99,81,49,29.98,29.85,2,0,8,0.00
2013-5-22,86.0,71.5,62.0,71.0,65.9,60.0,97,84,58,29.93,29.78,4,1,12,0.73
2013-5-23,84.0,70.2,62.0,69.0,63.2,56.0,98,81,48,29.89,29.77,6,1,15,0.99
2013-5-24,74.0,64.4,55.0,60.0,50.4,41.0,96,65,31,30.15,29.84,4,1,11,0.01
2013-5-25,78.0,62.1,47.0,55.0,45.6,38.0,91,59,28,30.25,30.12,6,1,12,0.00
2013-5-26,78.0,63.1,53.0,57.0,49.2,44.0,85,63,37,30.24,30.11,4,1,9,0.00
2013-5-27,84.0,68.1,53.0,63.0,56.2,51.0,97,70,41,30.21,30.07,6,1,11,0.00
2013-5-28,85.0,72.5,62.0,65.0,61.4,59.0,93,71,44,30.16,30.07,5,1,13,0.00
2013-5-29,87.0,73.0,61.0,66.0,62.2,59.0,96,72,41,30.17,30.09,4,1,9,0.00
2013-5-30,84.0,71.9,62.0,70.0,63.1,61.0,96,76,47,30.21,30.09,4,1,8,0.00
2013-5-31,87.0,74.3,65.0,67.0,64.8,63.0,95,74,47,30.16,30.03,5,1,13,0.00
2013-6-1,87.0,75.0,66.0,68.0,65.8,64.0,95,75,51,30.06,29.94,6,1,14,0.01
2013-6-2,80.0,71.3,67.0,72.0,66.0,-99.9,97,87,75,29.97,29.84,3,1,11,0.91
2013-6-3,81.0,71.8,65.0,73.0,68.1,64.0,98,89,71,29.89,29.79,2,0,6,0.54
2013-6-4,84.0,72.0,62.0,71.0,66.2,61.0,99,84,58,30.00,29.88,3,0,8,0.54
2013-6-5,83.0,71.9,67.0,71.0,67.4,65.0,97,86,68,30.02,29.88,3,0,9,0.34
2013-6-6,76.0,69.0,64.0,71.0,67.2,63.0,98,94,82,29.92,29.74,3,0,10,0.73
2013-6-7,82.0,70.4,66.0,75.0,67.9,65.0,98,92,73,29.77,29.61,5,1,11,0.40
2013-6-8,84.0,72.6,64.0,71.0,67.0,63.0,99,84,61,30.02,29.76,5,1,10,0.11
2013-6-9,83.0,71.9,66.0,74.0,68.8,65.0,98,90,68,30.07,29.98,3,0,10,0.52
2013-6-10,78.0,71.4,69.0,72.0,68.6,66.0,97,92,75,29.99,29.85,5,2,17,1.20
2013-6-11,89.0,76.4,68.0,73.0,68.5,61.0,97,79,40,29.93,29.86,5,1,11,0.03
2013-6-12,90.0,76.3,64.0,78.0,70.1,63.0,98,83,52,29.96,29.85,4,0,11,0.02
2013-6-13,93.0,78.0,68.0,75.0,70.2,67.0,96,80,44,29.85,29.64,8,1,20,0.17
2013-6-14,85.0,72.4,58.0,67.0,60.6,56.0,98,71,40,29.97,29.72,3,1,11,0.18
2013-6-15,85.0,71.5,58.0,66.0,60.2,56.0,96,71,45,30.08,29.97,4,1,11,0.01
2013-6-16,87.0,73.8,62.0,69.0,64.7,60.0,96,76,47,30.09,29.95,6,1,13,0.00
2013-6-17,82.0,73.5,67.0,75.0,69.6,66.0,96,88,73,29.98,29.87,4,1,15,3.20
2013-6-18,83.0,73.1,67.0,75.0,69.5,65.0,98,90,70,29.91,29.72,7,1,18,3.20
2013-6-19,84.0,73.3,66.0,71.0,66.5,64.0,95,80,57,30.04,29.83,2,0,8,0.14
2013-6-20,85.0,71.1,64.0,69.0,65.5,63.0,98,84,56,30.15,30.03,2,0,9,0.00
2013-6-22,88.0,84.6,71.0,68.0,63.3,60.0,84,50,40,30.16,30.05,3,1,8,0.00
2013-6-23,89.0,74.9,66.0,76.0,68.5,64.0,96,82,53,30.14,30.03,3,0,10,0.01
2013-6-24,90.0,77.1,68.0,74.0,70.1,67.0,98,81,55,30.15,30.02,6,1,12,0.03
2013-6-25,91.0,75.8,69.0,76.0,70.0,67.0,97,84,50,30.08,29.95,4,1,15,0.09
2013-6-26,90.0,75.5,69.0,77.0,70.9,68.0,98,87,59,29.98,29.85,5,1,10,0.12
2013-6-27,91.0,77.1,69.0,78.0,72.0,68.0,98,86,57,29.89,29.65,6,1,15,0.41
2013-6-28,95.0,78.6,67.0,78.0,71.4,66.0,99,81,50,29.73,29.53,4,1,10,0.31
2013-6-29,90.0,78.0,67.0,72.0,68.2,65.0,98,75,45,29.64,29.55,5,1,12,0.00
2013-6-30,88.0,75.4,69.0,73.0,69.4,67.0,96,83,51,29.76,29.63,3,0,9,0.00
2013-7-1,84.0,73.4,68.0,72.0,68.6,66.0,97,86,62,29.89,29.74,3,0,11,0.42
2013-7-2,81.0,73.8,68.0,74.0,70.0,67.0,98,89,73,30.06,29.88,4,1,10,0.22
2013-7-3,82.0,72.6,65.0,73.0,69.8,64.0,98,91,74,30.15,30.03,5,0,12,1.26
2013-7-4,76.0,69.2,65.0,75.0,68.1,64.0,99,97,93,30.16,30.07,3,0,8,2.63
2013-7-5,86.0,72.2,68.0,75.0,69.3,67.0,99,92,62,30.18,30.10,4,0,17,0.93
2013-7-6,86.0,74.5,69.0,76.0,71.0,68.0,99,90,63,30.15,30.04,4,1,11,0.50
2013-7-7,84.0,75.6,70.0,74.0,71.6,69.0,98,88,71,30.10,30.01,5,1,14,0.27
2013-7-8,88.0,74.9,70.0,78.0,70.1,-99.9,98,89,63,30.12,30.03,3,0,6,0.15
2013-7-9,90.0,77.1,69.0,77.0,71.8,68.0,98,85,59,30.12,29.98,6,1,12,0.72
2013-7-10,88.0,74.6,70.0,77.0,69.6,-99.9,98,88,65,30.06,29.89,3,0,7,0.66
2013-7-11,82.0,74.6,71.0,76.0,72.1,70.0,98,93,79,29.92,29.80,3,0,6,0.03
2013-7-12,87.0,74.0,66.0,75.0,70.2,64.0,98,89,62,29.93,29.80,2,0,8,1.06
2013-7-13,78.0,70.5,64.0,73.0,68.2,63.0,98,93,80,30.04,29.92,2,0,7,1.07
2013-7-14,78.0,72.5,69.0,73.0,70.5,68.0,98,94,84,30.20,30.03,3,0,11,0.63
2013-7-15,86.0,74.7,69.0,75.0,70.8,68.0,99,89,64,30.26,30.17,3,0,8,0.26
2013-7-16,91.0,78.3,69.0,78.0,72.5,68.0,99,85,56,30.24,30.15,3,0,8,0.26
2013-7-17,94.0,77.8,69.0,81.0,72.5,68.0,98,86,53,30.19,30.05,2,0,7,0.34
2013-7-18,92.0,77.3,68.0,78.0,71.6,67.0,99,85,53,30.13,30.00,2,0,7,0.34
2013-7-19,92.0,79.1,70.0,76.0,72.4,69.0,98,82,54,30.05,29.91,5,1,10,0.01
2013-7-20,89.0,75.6,71.0,76.0,71.2,-99.9,97,89,64,29.97,29.88,4,1,11,0.68
2013-7-21,88.0,75.8,70.0,76.0,72.0,69.0,99,89,63,29.94,29.86,3,0,10,1.02
2013-7-22,86.0,75.7,70.0,76.0,71.2,69.0,98,87,67,29.94,29.78,6,1,17,0.07
2013-7-23,91.0,78.0,69.0,76.0,71.2,68.0,97,82,52,29.83,29.71,4,1,10,0.02
2013-7-24,92.0,77.1,68.0,76.0,71.0,67.0,99,83,52,29.77,29.69,2,0,10,0.00
2013-7-25,88.0,74.4,66.0,75.0,68.5,64.0,99,83,55,29.95,29.77,4,0,9,0.01
2013-7-26,88.0,74.2,65.0,74.0,68.7,64.0,98,85,60,30.03,29.93,2,0,13,0.01
2013-7-27,83.0,74.6,70.0,74.0,71.0,69.0,99,90,68,29.96,29.83,4,1,11,1.89
2013-7-28,88.0,75.2,67.0,72.0,69.2,66.0,98,84,55,29.94,29.84,4,1,11,0.56
2013-7-29,89.0,72.9,63.0,73.0,66.7,62.0,98,83,49,30.09,29.94,3,0,7,0.00
2013-7-30,87.0,74.0,62.0,75.0,67.3,60.0,97,81,59,30.15,30.06,3,0,8,0.00
2013-7-31,79.0,72.2,70.0,73.0,70.3,68.0,98,94,81,30.10,29.91,1,0,6,0.42
2013-8-1,87.0,74.5,71.0,76.0,71.6,69.0,98,92,63,29.93,29.83,3,0,8,0.52
2013-8-2,89.0,75.3,66.0,77.0,69.5,65.0,99,84,54,29.97,29.85,3,0,8,0.31
2013-8-3,89.0,77.7,70.0,75.0,70.9,66.0,98,82,50,29.96,29.89,4,0,9,0.00
2013-8-4,91.0,76.9,67.0,77.0,70.0,64.0,98,82,51,29.96,29.87,2,0,7,0.00
2013-8-5,88.0,73.9,65.0,74.0,67.6,63.0,96,82,55,30.01,29.90,3,0,7,0.00
2013-8-6,85.0,74.9,70.0,75.0,71.3,68.0,98,89,72,29.99,29.89,4,0,10,1.11
2013-8-7,77.0,73.0,71.0,75.0,71.7,70.0,98,96,91,30.01,29.94,3,0,6,0.56
2013-8-8,83.0,75.7,70.0,76.0,72.1,69.0,99,90,75,30.01,29.95,5,1,10,0.10
2013-8-9,90.0,76.4,71.0,77.0,73.2,70.0,99,91,65,30.01,29.95,6,1,12,0.46
2013-8-10,91.0,77.0,70.0,78.0,73.5,69.0,99,90,63,30.05,29.98,4,0,14,0.17
2013-8-11,91.0,75.2,68.0,77.0,71.6,67.0,99,90,59,30.07,29.99,4,0,9,0.37
2013-8-12,92.0,75.3,69.0,81.0,72.1,68.0,99,91,58,30.03,29.89,3,0,6,0.61
2013-8-13,89.0,76.4,70.0,77.0,70.6,-99.9,98,86,60,29.91,29.75,6,1,13,0.15
2013-8-14,80.0,69.4,66.0,71.0,63.7,-99.9,98,89,65,30.00,29.80,2,0,7,0.16
2013-8-15,73.0,62.3,62.0,66.0,49.1,-99.9,96,80,64,30.08,29.99,2,0,11,0.01
2013-8-16,75.0,63.9,61.0,64.0,57.6,-99.9,96,86,64,30.11,30.02,3,0,9,0.00
2013-8-17,69.0,64.7,62.0,64.0,61.7,59.0,97,90,78,30.13,30.07,2,0,9,0.14
2013-8-18,74.0,67.0,64.0,71.0,64.1,-99.9,98,93,82,30.17,30.09,1,0,4,0.37
2013-8-19,76.0,66.1,66.0,72.0,56.7,-99.9,99,94,81,30.14,30.03,1,0,5,1.46
2013-8-20,81.0,70.4,65.0,73.0,66.6,-99.9,99,92,74,30.14,30.05,1,0,6,0.01
2013-8-21,81.0,72.1,68.0,74.0,70.3,67.0,99,95,76,30.18,30.06,2,0,4,0.30
2013-8-22,89.0,74.5,67.0,76.0,71.0,66.0,99,90,58,30.10,29.97,4,0,10,0.91
2013-8-23,89.0,74.0,66.0,77.0,69.7,65.0,99,88,58,30.01,29.90,2,0,8,0.56
2013-8-24,84.0,71.3,63.0,68.0,64.9,61.0,98,83,52,30.23,30.00,2,0,10,0.56
2013-8-25,82.0,67.5,57.0,66.0,59.4,-99.9,99,80,48,30.33,30.22,2,0,10,0.01
2013-8-26,87.0,70.4,58.0,70.0,63.6,57.0,98,81,48,30.27,30.07,3,0,7,0.00
2013-8-27,92.0,71.6,62.0,72.0,65.8,61.0,99,85,47,30.10,29.96,2,0,8,0.01
2013-8-28,93.0,84.4,73.0,77.0,73.8,71.0,94,72,54,29.96,29.88,5,1,10,0.00
2013-8-29,95.0,78.6,69.0,80.0,72.1,68.0,98,83,53,29.90,29.82,2,0,7,0.00
2013-8-30,85.0,75.5,72.0,75.0,72.1,70.0,97,90,70,29.98,29.87,2,0,6,0.05
2013-8-31,90.0,75.1,70.0,78.0,71.9,69.0,99,90,63,29.91,29.83,4,0,9,0.49
2013-9-1,88.0,74.6,69.0,77.0,69.7,-99.9,99,88,63,29.85,29.75,6,1,13,0.28
2013-9-2,87.0,75.2,70.0,77.0,71.7,68.0,99,90,68,29.85,29.76,3,0,7,0.30
2013-9-3,89.0,74.3,66.0,76.0,68.8,64.0,98,85,54,29.91,29.77,2,0,11,0.05
2013-9-4,89.0,74.4,65.0,73.0,67.3,64.0,99,81,50,30.03,29.91,3,0,8,0.01
2013-9-5,91.0,74.2,65.0,75.0,67.9,63.0,98,83,48,30.06,29.98,3,0,8,0.00
2013-9-6,86.0,71.4,62.0,68.0,63.7,61.0,98,79,47,30.12,30.01,2,0,12,0.00
2013-9-7,86.0,72.1,62.0,71.0,65.1,61.0,98,81,53,30.08,29.93,4,0,11,0.00
2013-9-8,89.0,73.0,64.0,74.0,67.1,-99.9,99,85,51,29.94,29.87,2,0,6,0.00
2013-9-9,89.0,75.2,65.0,74.0,68.8,64.0,99,83,55,30.07,29.93,3,0,7,0.01
2013-9-10,91.0,75.3,66.0,75.0,69.0,65.0,98,83,52,30.17,30.07,2,0,7,0.01
2013-9-11,91.0,75.5,65.0,73.0,68.7,64.0,99,82,49,30.16,30.03,4,0,8,0.00
2013-9-12,92.0,74.7,68.0,74.0,69.9,67.0,98,87,48,30.03,29.80,3,0,14,0.09
2013-9-13,88.0,72.5,62.0,69.0,64.3,57.0,99,79,44,29.83,29.73,3,0,8,0.05
2013-9-14,80.0,65.4,54.0,63.0,56.2,52.0,96,75,45,30.06,29.83,3,0,9,0.00
2013-9-15,82.0,64.5,58.0,69.0,59.1,-99.9,97,86,57,30.15,30.06,2,0,6,0.00
2013-9-16,88.0,72.3,63.0,72.0,65.2,62.0,98,81,46,30.08,29.99,3,0,5,0.00
2013-9-17,74.0,66.9,63.0,65.0,59.6,56.0,92,78,62,30.23,30.08,2,0,8,0.00
2013-9-18,63.0,61.3,59.0,60.0,57.3,55.0,92,87,83,30.23,30.13,0,0,3,0.00
2013-9-19,82.0,68.7,58.0,71.0,63.5,57.0,98,85,58,30.14,30.02,3,0,7,0.00
2013-9-20,87.0,72.0,62.0,71.0,65.3,61.0,99,82,51,30.03,29.86,5,1,10,0.00
2013-9-21,71.0,66.9,63.0,69.0,65.7,62.0,97,96,92,29.87,29.61,3,0,10,1.58
2013-9-22,80.0,64.8,56.0,66.0,58.8,-99.9,99,85,55,29.85,29.68,2,0,7,0.95
2013-9-23,79.0,64.9,58.0,64.0,59.1,56.0,95,83,53,30.00,29.85,2,0,8,0.01
2013-9-24,75.0,65.3,57.0,67.0,61.2,56.0,98,87,66,30.02,29.88,0,0,0,0.00
2013-9-25,65.0,63.4,61.0,64.0,62.2,60.0,98,96,93,29.89,29.81,0,0,0,0.81
2013-9-26,77.0,64.8,57.0,65.0,60.1,55.0,99,86,54,29.98,29.83,0,0,0,0.01
2013-9-27,79.0,63.5,52.0,63.0,57.0,51.0,98,82,54,30.12,29.98,0,0,0,0.01
2013-9-28,74.0,63.3,55.0,61.0,57.2,54.0,98,82,57,30.20,30.09,0,0,0,0.01
2013-9-29,75.0,60.7,52.0,61.0,54.5,-99.9,98,84,54,30.14,29.99,0,0,0,0.00
2013-9-30,80.0,64.6,54.0,63.0,58.1,53.0,98,82,48,30.05,29.95,0,0,0,0.00
2013-10-1,65.0,63.1,59.0,61.0,60.1,58.0,95,90,87,30.06,30.03,0,0,0,0.01
2013-10-2,85.0,68.4,57.0,68.0,61.7,55.0,98,81,46,30.10,30.01,0,0,0,0.01
2013-10-3,85.0,69.9,58.0,67.0,62.3,57.0,98,80,46,30.08,30.01,4,0,10,0.00
2013-10-4,87.0,69.8,58.0,70.0,63.1,57.0,98,82,48,30.09,30.02,0,0,0,0.00
2013-10-5,88.0,70.9,59.0,71.0,64.4,58.0,98,82,47,30.08,29.97,0,0,0,0.00
2013-10-6,85.0,70.1,60.0,69.0,64.1,59.0,98,83,53,30.00,29.81,4,0,9,0.01
2013-10-7,75.0,66.5,55.0,69.0,63.2,53.0,98,90,71,29.93,29.74,4,0,8,1.37
2013-10-8,71.0,60.6,54.0,57.0,53.1,48.0,96,78,54,30.15,29.93,3,0,13,0.01
2013-10-9,76.0,59.1,48.0,55.0,49.0,45.0,96,73,39,30.18,30.06,3,0,10,0.00
2013-10-10,81.0,61.0,46.0,61.0,52.6,45.0,98,78,40,30.10,29.95,2,0,9,0.00
2013-10-11,83.0,65.4,54.0,61.0,56.0,52.0,98,76,35,29.97,29.87,0,0,0,0.00
2013-10-12,80.0,64.5,54.0,67.0,59.2,52.0,98,85,51,30.03,29.91,0,0,0,0.00
2013-10-13,77.0,66.1,62.0,67.0,61.5,-99.9,97,88,65,30.15,30.03,0,0,0,0.09
2013-10-14,71.0,64.7,61.0,64.0,61.7,60.0,98,91,76,30.17,30.09,0,0,6,0.09
2013-10-15,69.0,61.6,55.0,61.0,57.7,54.0,97,87,71,30.14,30.01,0,0,0,0.00
2013-10-16,72.0,61.2,52.0,62.0,56.5,51.0,98,86,63,30.03,29.92,0,0,0,0.00
2013-10-17,67.0,63.3,61.0,64.0,61.7,59.0,97,94,84,29.93,29.81,2,0,9,0.13
2013-10-18,73.0,61.3,51.0,63.0,56.6,50.0,98,86,57,29.97,29.85,3,0,7,0.01
2013-10-19,63.0,59.1,52.0,59.0,56.7,51.0,98,93,79,29.91,29.81,4,0,10,0.01
2013-10-20,69.0,53.8,43.0,53.0,45.9,-99.9,98,80,45,30.05,29.89,3,0,7,0.01
2013-10-21,69.0,54.4,43.0,56.0,49.4,42.0,98,85,59,30.11,29.96,3,0,12,0.01
2013-10-22,69.0,59.4,54.0,57.0,54.6,52.0,97,85,56,29.98,29.76,3,1,12,0.01
2013-10-23,66.0,53.3,43.0,53.0,41.4,32.0,98,70,30,30.01,29.70,7,1,17,0.01
2013-10-24,63.0,46.1,34.0,46.0,37.8,32.0,95,76,43,30.14,30.00,7,1,15,0.00
2013-10-25,57.0,46.3,35.0,40.0,31.5,27.0,89,60,34,30.34,30.13,5,1,12,0.00
2013-10-26,58.0,42.6,29.0,41.0,33.6,27.0,97,74,42,30.34,30.07,7,1,14,0.00
2013-10-27,70.0,52.2,38.0,55.0,43.8,-99.9,98,78,49,30.10,30.02,5,0,10,0.00
2013-10-28,69.0,56.5,49.0,58.0,51.1,-99.9,98,87,60,30.21,30.06,4,0,11,0.01
2013-10-29,75.0,59.9,49.0,57.0,53.1,48.0,98,81,47,30.29,30.19,2,0,5,0.01
2013-10-30,79.0,63.2,53.0,61.0,55.9,51.0,98,80,50,30.24,30.11,4,0,11,0.00
2013-10-31,70.0,61.7,56.0,63.0,57.9,55.0,97,88,71,30.13,29.85,0,0,2,0.00
2013-11-1,72.0,64.4,58.0,63.0,60.9,56.0,96,89,72,29.85,29.62,5,1,14,0.17
2013-11-2,69.0,55.0,44.0,57.0,47.0,40.0,98,78,36,29.96,29.69,6,1,16,0.03
2013-11-3,66.0,48.9,39.0,44.0,38.0,-99.9,97,72,30,30.32,29.96,3,0,12,0.01
2013-11-4,60.0,46.9,37.0,40.0,36.6,32.0,96,71,38,30.48,30.32,3,0,12,0.01
2013-11-5,62.0,46.5,36.0,46.0,38.8,32.0,93,76,48,30.51,30.38,2,0,12,0.00
2013-11-6,70.0,56.7,49.0,56.0,50.7,46.0,94,82,58,30.39,30.09,3,0,7,0.00
2013-11-7,68.0,54.1,44.0,60.0,46.4,34.0,98,78,43,30.10,29.93,4,1,8,0.04
2013-11-8,63.0,48.1,36.0,35.0,28.7,20.0,83,51,20,30.27,30.10,3,1,11,0.04
2013-11-9,59.0,42.6,31.0,43.0,31.5,-99.9,95,71,35,30.35,30.19,4,0,12,0.01
2013-11-10,75.0,54.6,39.0,45.0,38.9,35.0,95,62,25,30.21,30.09,4,0,7,0.01
2013-11-11,64.0,48.6,37.0,38.0,32.9,27.0,86,59,26,30.31,30.13,4,0,9,0.00
2013-11-12,66.0,43.6,31.0,42.0,31.8,15.0,92,67,31,30.42,30.04,5,1,16,0.00
2013-11-13,53.0,36.8,27.0,26.0,18.0,12.0,81,50,20,30.52,30.41,3,1,9,0.00
2013-11-14,60.0,39.2,24.0,29.0,23.6,19.0,92,62,21,30.46,30.30,5,1,14,0.00
2013-11-15,57.0,44.5,30.0,47.0,35.3,26.0,96,73,38,30.32,30.16,1,0,3,0.17
2013-11-16,60.0,52.0,48.0,56.0,49.1,-99.9,98,93,84,30.24,30.15,1,0,4,0.18
2013-11-17,62.0,56.8,53.0,59.0,55.5,52.0,98,96,90,30.17,29.88,1,0,4,0.76
2013-11-18,75.0,61.0,47.0,63.0,52.9,34.0,99,79,32,29.95,29.81,5,1,12,0.51
2013-11-19,59.0,48.6,40.0,36.0,30.9,25.0,78,53,30,30.20,29.93,3,1,12,0.01
2013-11-20,54.0,44.3,36.0,36.0,31.7,29.0,81,63,39,30.40,30.19,3,1,11,0.00
2013-11-21,50.0,47.3,45.0,48.0,41.0,32.0,96,80,59,30.42,30.34,2,0,10,0.07
2013-11-22,60.0,54.0,49.0,58.0,52.7,48.0,98,96,91,30.36,30.10,3,0,8,0.05
2013-11-23,59.0,52.3,36.0,56.0,44.2,-99.9,98,78,46,30.16,30.04,2,0,7,0.01
2013-11-24,45.0,35.5,26.0,31.0,16.7,10.0,81,49,25,30.50,30.17,5,1,15,0.00
2013-11-25,41.0,32.4,23.0,20.0,15.5,9.0,85,54,29,30.53,30.30,2,0,7,0.00
2013-11-26,44.0,38.4,32.0,43.0,36.3,16.0,98,94,41,30.31,29.61,2,0,6,3.67
2013-11-27,45.0,38.4,27.0,44.0,31.1,20.0,99,77,46,30.18,29.52,4,1,14,0.28
2013-11-28,49.0,32.3,22.0,31.0,23.4,18.0,92,72,38,30.46,30.18,3,0,8,0.01
2013-11-29,57.0,37.7,25.0,34.0,26.7,23.0,97,71,29,30.56,30.43,4,0,9,0.00
2013-11-30,48.0,35.9,29.0,30.0,25.0,-99.9,88,69,39,30.60,30.36,3,0,10,0.00
2013-12-1,57.0,40.1,30.0,40.0,32.4,27.0,92,76,45,30.35,29.99,3,0,8,0.00
2013-12-2,60.0,43.2,31.0,45.0,37.7,29.0,98,83,49,30.00,29.79,5,0,11,0.00
2013-12-3,57.0,51.2,47.0,52.0,49.1,45.0,98,93,77,29.91,29.82,3,0,10,0.06
2013-12-4,58.0,54.4,51.0,58.0,53.9,50.0,99,98,97,30.03,29.90,0,0,6,0.07
2013-12-5,67.0,61.2,57.0,67.0,61.2,57.0,100,100,99,30.05,29.94,7,1,17,0.37
2013-12-6,72.0,67.6,66.0,67.0,64.9,64.0,99,91,81,30.00,29.89,9,4,19,0.30
2013-12-7,66.0,56.2,49.0,65.0,49.3,-99.9,97,80,59,30.32,29.93,3,1,10,0.26
2013-12-8,48.0,39.7,36.0,41.0,37.5,34.0,96,92,75,30.34,30.23,3,0,8,0.21
2013-12-9,45.0,39.8,35.0,44.0,38.8,34.0,98,97,96,30.25,30.02,2,0,5,0.82
2013-12-10,55.0,44.9,33.0,51.0,38.7,25.0,99,81,47,30.29,29.88,3,0,10,0.20
2013-12-11,52.0,35.9,26.0,35.0,28.2,24.0,96,77,39,30.42,30.27,4,1,12,0.01
2013-12-12,51.0,36.6,27.0,29.0,24.0,19.0,92,66,28,30.38,30.27,3,0,10,0.00
2013-12-13,51.0,36.5,24.0,34.0,25.9,21.0,92,69,33,30.36,30.22,4,0,11,0.00
2013-12-14,42.0,39.6,38.0,41.0,35.4,-99.9,98,88,68,30.24,29.79,3,0,8,1.17
2013-12-15,52.0,42.8,30.0,43.0,36.4,28.0,98,80,51,30.09,29.73,4,0,9,0.01
2013-12-16,60.0,40.0,27.0,37.0,30.8,26.0,97,74,36,30.16,30.06,8,1,15,0.01
2013-12-17,63.0,45.9,32.0,39.0,33.4,26.0,92,66,35,30.13,29.92,9,2,19,0.00
2013-12-18,54.0,40.0,28.0,29.0,25.0,21.0,87,60,27,30.26,30.04,3,0,8,0.00
2013-12-19,61.0,40.8,28.0,34.0,26.7,20.0,90,64,21,30.31,30.19,5,1,13,0.00
2013-12-20,60.0,47.5,35.0,46.0,39.1,31.0,91,74,51,30.22,30.11,4,1,11,0.00
2013-12-21,60.0,52.8,49.0,60.0,50.3,-99.9,99,94,88,30.12,29.96,2,0,7,0.10
2013-12-22,68.0,61.7,58.0,65.0,60.9,58.0,99,97,90,30.00,29.91,6,1,19,1.43
2013-12-23,58.0,53.6,45.0,58.0,51.2,35.0,99,91,71,30.12,29.93,2,0,8,0.91
2013-12-24,44.0,37.6,28.0,36.0,27.3,18.0,95,68,48,30.39,30.11,3,1,10,0.01
2013-12-25,41.0,28.7,22.0,24.0,19.0,12.0,89,70,33,30.52,30.37,3,0,9,0.00
2013-12-26,54.0,36.2,24.0,33.0,25.8,21.0,92,70,36,30.39,30.23,5,0,9,0.00
2013-12-27,53.0,36.8,27.0,32.0,26.7,19.0,95,72,34,30.45,30.32,2,0,7,0.00
2013-12-28,49.0,36.2,26.0,40.0,30.2,-99.9,96,83,51,30.40,30.08,2,0,6,0.41
2013-12-29,60.0,44.7,39.0,54.0,42.9,38.0,98,94,79,30.09,29.78,4,0,8,1.19
2013-12-30,53.0,41.9,34.0,45.0,39.2,33.0,99,91,70,30.10,29.93,2,0,8,0.02
2013-12-31,50.0,38.8,32.0,40.0,31.1,26.0,95,77,40,30.34,30.09,2,0,5,0.00
2014-1-1,49.0,37.6,29.0,37.0,31.1,26.0,94,79,51,30.36,30.12,3,0,7,0.00
2014-1-2,45.0,41.3,31.0,44.0,38.3,17.0,97,89,62,30.12,29.64,4,0,15,0.19